Sheridan, IL (60551)

9:28 PM CDT on July 07, 2015 (GMT -0500)
Weather at Chuck and Pats | | Change Station
CLOSE
Current Station
Personal Weather Station
Location: Serena, IL
Elevation: 645 ft
Nearby Weather Stations
Active Advisory: Flood Warning

Elev 645 ft 41.51 °N, 88.74 °W | Updated 16 seconds ago

Partly Cloudy
Partly Cloudy
59.8 °F
Feels Like 59.8 °F
N
3.2
Wind Variable Wind from East
Gusts 3.5 mph

Today
High -- | Low -- °F
--% Chance of Precip.
Yesterday
High -- | Low -- °F
Precip. -- in
5:28 AM 8:31 PM
Waning Gibbous, 59% visible
Pressure 30.06 in
Visibility 10.0 miles
Clouds Clear
Dew Point 54 °F
Humidity 80%
Rainfall 0.30 in
Snow Depth Not available.
UV 0 out of 12
Pollen .60 out of 12
Air Quality Not available.
Flu Activity Not available.
METAR KC09 080215Z AUTO 07004KT 10SM CLR 16/10 A3006 RMK AO2 T01550103

More Conditions Fewer Conditions

Pressure 30.06 in
Visibility 10.0 miles
Clouds Clear
Dew Point 54 °F
Humidity 80%
Rainfall 0.30 in
Snow Depth Not available.
UV 0 out of 12
Pollen .60 out of 12
Air Quality Not available.
Flu Activity Not available.
METAR KC09 080215Z AUTO 07004KT 10SM CLR 16/10 A3006 RMK AO2 T01550103

More Conditions Fewer Conditions

10-Day Weather Forecast

×

Almanac

Astronomy

Jul. 07, 2015 Rise Set
Actual Time
Civil Twilight
Nautical Twilight
Astronomical Twilight
Moon
Length of Visible Light
Length of Day
Tomorrow will be .
, % of the Moon is Illuminated

Today's Extremes

State Highs State Lows

Community

WunderPhotos

Upload Photos

1,836,013 photos uploaded!

WunderBlogs® & News

Nearby

Air Quality

  Air Quality AQ Index Pollutant
Not available.

Snow Depth

Station Depth Elevation

Earthquake Activity

City Distance Mag. Time & Date
Minimum magnitude displayed is 2.5.

Coastal Water Temperatures

Place Temperature

Stations

Nearby Weather Stations

Station Location Temp. Windchill Dew Point Humidity Wind Precip. Elev Updated Type
                   
Flood Warning
Statement as of 8:24 PM CDT on July 07, 2015

The Flood Warning continues for
the Illinois River at La Salle.
* Until Monday evening.
* At 745 PM Tuesday the stage was 23.5 feet.
* Flood stage is 20.0 feet.
* Minor flooding is occurring and minor flooding is forecast.
* Forecast... the river will continue to rise near 23.6 feet by early
Wednesday. The river will fall below flood stage by Monday
afternoon.


Lat... Lon 4137 8896 4135 8929 4126 8930 4128 8896